sensor_id;sensor_type;location;lat;lon;timestamp;P1;durP1;ratioP1;P2;durP2;ratioP2
26042;SDS011;13818;52.156;5.382;2022-10-31T00:00:50;11.75;;;5.05;;
26042;SDS011;13818;52.156;5.382;2022-10-31T00:03:17;12.93;;;5.95;;
26042;SDS011;13818;52.156;5.382;2022-10-31T00:05:45;16.38;;;5.55;;
26042;SDS011;13818;52.156;5.382;2022-10-31T00:08:13;8.82;;;5.18;;
26042;SDS011;13818;52.156;5.382;2022-10-31T00:10:40;14.55;;;6.10;;
26042;SDS011;13818;52.156;5.382;2022-10-31T00:13:06;11.60;;;5.68;;
26042;SDS011;13818;52.156;5.382;2022-10-31T00:15:33;12.20;;;5.30;;
26042;SDS011;13818;52.156;5.382;2022-10-31T00:18:00;11.82;;;4.95;;
26042;SDS011;13818;52.156;5.382;2022-10-31T00:20:26;16.95;;;5.68;;
26042;SDS011;13818;52.156;5.382;2022-10-31T00:22:57;15.93;;;5.70;;
26042;SDS011;13818;52.156;5.382;2022-10-31T00:25:24;16.65;;;5.40;;
26042;SDS011;13818;52.156;5.382;2022-10-31T00:27:50;11.65;;;5.07;;
26042;SDS011;13818;52.156;5.382;2022-10-31T00:30:17;14.38;;;5.00;;
26042;SDS011;13818;52.156;5.382;2022-10-31T00:32:43;18.63;;;5.47;;
26042;SDS011;13818;52.156;5.382;2022-10-31T00:35:10;11.77;;;5.28;;
26042;SDS011;13818;52.156;5.382;2022-10-31T00:37:36;14.73;;;5.53;;
26042;SDS011;13818;52.156;5.382;2022-10-31T00:40:05;16.00;;;5.70;;
26042;SDS011;13818;52.156;5.382;2022-10-31T00:42:32;11.27;;;5.18;;
26042;SDS011;13818;52.156;5.382;2022-10-31T00:44:58;17.92;;;5.75;;
26042;SDS011;13818;52.156;5.382;2022-10-31T00:47:25;14.52;;;5.32;;
26042;SDS011;13818;52.156;5.382;2022-10-31T00:49:51;13.40;;;5.60;;
26042;SDS011;13818;52.156;5.382;2022-10-31T00:52:17;12.55;;;5.97;;
26042;SDS011;13818;52.156;5.382;2022-10-31T00:54:44;15.20;;;6.85;;
26042;SDS011;13818;52.156;5.382;2022-10-31T00:57:12;17.73;;;6.50;;
26042;SDS011;13818;52.156;5.382;2022-10-31T00:59:38;13.93;;;6.43;;
26042;SDS011;13818;52.156;5.382;2022-10-31T01:02:04;13.63;;;5.75;;
26042;SDS011;13818;52.156;5.382;2022-10-31T01:04:31;17.23;;;6.47;;
26042;SDS011;13818;52.156;5.382;2022-10-31T01:06:57;20.15;;;7.22;;
26042;SDS011;13818;52.156;5.382;2022-10-31T01:09:24;16.98;;;7.00;;
26042;SDS011;13818;52.156;5.382;2022-10-31T01:11:50;16.67;;;6.15;;
26042;SDS011;13818;52.156;5.382;2022-10-31T01:14:18;11.75;;;7.07;;
26042;SDS011;13818;52.156;5.382;2022-10-31T01:16:44;20.35;;;6.70;;
26042;SDS011;13818;52.156;5.382;2022-10-31T01:19:11;17.33;;;7.50;;
26042;SDS011;13818;52.156;5.382;2022-10-31T01:21:37;12.80;;;6.15;;
26042;SDS011;13818;52.156;5.382;2022-10-31T01:24:04;17.35;;;6.60;;
26042;SDS011;13818;52.156;5.382;2022-10-31T01:26:31;10.77;;;5.60;;
26042;SDS011;13818;52.156;5.382;2022-10-31T01:29:00;16.63;;;6.47;;
26042;SDS011;13818;52.156;5.382;2022-10-31T01:31:30;17.17;;;7.00;;
26042;SDS011;13818;52.156;5.382;2022-10-31T01:33:59;18.55;;;6.03;;
26042;SDS011;13818;52.156;5.382;2022-10-31T01:36:26;14.23;;;7.00;;
26042;SDS011;13818;52.156;5.382;2022-10-31T01:38:57;12.07;;;6.15;;
26042;SDS011;13818;52.156;5.382;2022-10-31T01:41:26;17.30;;;6.60;;
26042;SDS011;13818;52.156;5.382;2022-10-31T01:43:55;17.27;;;6.65;;
26042;SDS011;13818;52.156;5.382;2022-10-31T01:46:24;22.45;;;6.78;;
26042;SDS011;13818;52.156;5.382;2022-10-31T01:48:54;11.70;;;6.13;;
26042;SDS011;13818;52.156;5.382;2022-10-31T01:51:24;17.00;;;7.97;;
26042;SDS011;13818;52.156;5.382;2022-10-31T01:53:54;13.98;;;6.40;;
26042;SDS011;13818;52.156;5.382;2022-10-31T01:56:23;13.07;;;5.38;;
26042;SDS011;13818;52.156;5.382;2022-10-31T01:58:50;13.77;;;5.82;;
26042;SDS011;13818;52.156;5.382;2022-10-31T02:01:17;16.05;;;6.45;;
26042;SDS011;13818;52.156;5.382;2022-10-31T02:03:44;15.50;;;6.10;;
26042;SDS011;13818;52.156;5.382;2022-10-31T02:06:16;23.75;;;6.70;;
26042;SDS011;13818;52.156;5.382;2022-10-31T02:08:50;18.95;;;7.80;;
26042;SDS011;13818;52.156;5.382;2022-10-31T02:11:17;10.95;;;5.80;;
26042;SDS011;13818;52.156;5.382;2022-10-31T02:13:43;15.73;;;6.85;;
26042;SDS011;13818;52.156;5.382;2022-10-31T02:16:10;13.55;;;5.88;;
26042;SDS011;13818;52.156;5.382;2022-10-31T02:18:37;14.75;;;6.80;;
26042;SDS011;13818;52.156;5.382;2022-10-31T02:21:07;14.73;;;7.00;;
26042;SDS011;13818;52.156;5.382;2022-10-31T02:23:58;15.73;;;6.55;;
26042;SDS011;13818;52.156;5.382;2022-10-31T02:26:56;14.40;;;7.35;;
26042;SDS011;13818;52.156;5.382;2022-10-31T02:32:38;12.30;;;6.45;;
26042;SDS011;13818;52.156;5.382;2022-10-31T02:35:13;14.75;;;6.90;;
26042;SDS011;13818;52.156;5.382;2022-10-31T02:37:51;14.73;;;7.05;;
26042;SDS011;13818;52.156;5.382;2022-10-31T02:40:26;21.65;;;8.23;;
26042;SDS011;13818;52.156;5.382;2022-10-31T02:42:58;16.67;;;6.90;;
26042;SDS011;13818;52.156;5.382;2022-10-31T02:45:31;15.65;;;7.35;;
26042;SDS011;13818;52.156;5.382;2022-10-31T02:48:07;14.50;;;7.97;;
26042;SDS011;13818;52.156;5.382;2022-10-31T02:50:37;18.95;;;8.50;;
26042;SDS011;13818;52.156;5.382;2022-10-31T02:53:07;21.77;;;8.13;;
26042;SDS011;13818;52.156;5.382;2022-10-31T02:58:27;22.95;;;8.15;;
26042;SDS011;13818;52.156;5.382;2022-10-31T03:01:07;18.08;;;8.98;;
26042;SDS011;13818;52.156;5.382;2022-10-31T03:03:48;23.15;;;8.65;;
26042;SDS011;13818;52.156;5.382;2022-10-31T03:06:23;23.47;;;9.60;;
26042;SDS011;13818;52.156;5.382;2022-10-31T03:08:58;17.65;;;8.45;;
26042;SDS011;13818;52.156;5.382;2022-10-31T03:11:29;21.20;;;9.40;;
26042;SDS011;13818;52.156;5.382;2022-10-31T03:14:04;22.10;;;9.68;;
26042;SDS011;13818;52.156;5.382;2022-10-31T03:16:36;24.33;;;9.63;;
26042;SDS011;13818;52.156;5.382;2022-10-31T03:19:12;23.33;;;10.30;;
26042;SDS011;13818;52.156;5.382;2022-10-31T03:21:42;22.05;;;10.07;;
26042;SDS011;13818;52.156;5.382;2022-10-31T03:24:11;25.77;;;10.35;;
26042;SDS011;13818;52.156;5.382;2022-10-31T03:26:40;26.38;;;10.02;;
26042;SDS011;13818;52.156;5.382;2022-10-31T03:29:10;19.02;;;9.50;;
26042;SDS011;13818;52.156;5.382;2022-10-31T03:31:42;26.50;;;10.63;;
26042;SDS011;13818;52.156;5.382;2022-10-31T03:34:14;24.60;;;9.93;;
26042;SDS011;13818;52.156;5.382;2022-10-31T03:36:42;24.30;;;10.77;;
26042;SDS011;13818;52.156;5.382;2022-10-31T03:39:13;30.30;;;10.73;;
26042;SDS011;13818;52.156;5.382;2022-10-31T03:41:42;25.40;;;9.45;;
26042;SDS011;13818;52.156;5.382;2022-10-31T03:44:12;21.85;;;9.85;;
26042;SDS011;13818;52.156;5.382;2022-10-31T03:46:42;20.48;;;9.48;;
26042;SDS011;13818;52.156;5.382;2022-10-31T03:49:10;23.60;;;9.75;;
26042;SDS011;13818;52.156;5.382;2022-10-31T03:51:42;22.63;;;10.27;;
26042;SDS011;13818;52.156;5.382;2022-10-31T03:54:14;21.02;;;9.65;;
26042;SDS011;13818;52.156;5.382;2022-10-31T03:56:48;29.08;;;9.63;;
26042;SDS011;13818;52.156;5.382;2022-10-31T03:59:20;19.90;;;8.98;;
26042;SDS011;13818;52.156;5.382;2022-10-31T04:01:53;32.58;;;10.45;;
26042;SDS011;13818;52.156;5.382;2022-10-31T04:04:23;22.55;;;10.05;;
26042;SDS011;13818;52.156;5.382;2022-10-31T04:06:52;21.50;;;10.10;;
26042;SDS011;13818;52.156;5.382;2022-10-31T04:09:21;24.20;;;9.98;;
26042;SDS011;13818;52.156;5.382;2022-10-31T04:11:50;22.90;;;10.35;;
26042;SDS011;13818;52.156;5.382;2022-10-31T04:14:19;22.52;;;10.32;;
26042;SDS011;13818;52.156;5.382;2022-10-31T04:16:48;24.65;;;9.73;;
26042;SDS011;13818;52.156;5.382;2022-10-31T04:19:14;24.58;;;11.77;;
26042;SDS011;13818;52.156;5.382;2022-10-31T04:21:41;22.42;;;9.30;;
26042;SDS011;13818;52.156;5.382;2022-10-31T04:24:09;21.83;;;9.65;;
26042;SDS011;13818;52.156;5.382;2022-10-31T04:26:36;21.98;;;10.70;;
26042;SDS011;13818;52.156;5.382;2022-10-31T04:29:02;22.77;;;9.55;;
26042;SDS011;13818;52.156;5.382;2022-10-31T04:31:29;30.38;;;10.02;;
26042;SDS011;13818;52.156;5.382;2022-10-31T04:33:55;22.48;;;10.30;;
26042;SDS011;13818;52.156;5.382;2022-10-31T04:36:22;24.98;;;9.90;;
26042;SDS011;13818;52.156;5.382;2022-10-31T04:38:49;21.58;;;10.05;;
26042;SDS011;13818;52.156;5.382;2022-10-31T04:41:16;26.33;;;9.95;;
26042;SDS011;13818;52.156;5.382;2022-10-31T04:43:43;26.10;;;11.10;;
26042;SDS011;13818;52.156;5.382;2022-10-31T04:46:09;26.58;;;11.82;;
26042;SDS011;13818;52.156;5.382;2022-10-31T04:48:36;26.88;;;11.43;;
26042;SDS011;13818;52.156;5.382;2022-10-31T04:51:02;29.35;;;10.80;;
26042;SDS011;13818;52.156;5.382;2022-10-31T04:53:29;22.00;;;10.98;;
26042;SDS011;13818;52.156;5.382;2022-10-31T04:55:57;24.77;;;10.30;;
26042;SDS011;13818;52.156;5.382;2022-10-31T04:58:25;23.40;;;10.65;;
26042;SDS011;13818;52.156;5.382;2022-10-31T05:00:52;27.38;;;11.85;;
26042;SDS011;13818;52.156;5.382;2022-10-31T05:03:19;25.48;;;10.57;;
26042;SDS011;13818;52.156;5.382;2022-10-31T05:05:45;27.13;;;11.93;;
26042;SDS011;13818;52.156;5.382;2022-10-31T05:08:12;28.70;;;11.27;;
26042;SDS011;13818;52.156;5.382;2022-10-31T05:10:38;28.58;;;11.20;;
26042;SDS011;13818;52.156;5.382;2022-10-31T05:13:05;27.65;;;11.35;;
26042;SDS011;13818;52.156;5.382;2022-10-31T05:15:33;31.10;;;13.15;;
26042;SDS011;13818;52.156;5.382;2022-10-31T05:18:00;30.00;;;11.23;;
26042;SDS011;13818;52.156;5.382;2022-10-31T05:20:27;25.88;;;10.75;;
26042;SDS011;13818;52.156;5.382;2022-10-31T05:22:55;31.40;;;11.00;;
26042;SDS011;13818;52.156;5.382;2022-10-31T05:25:23;21.65;;;10.75;;
26042;SDS011;13818;52.156;5.382;2022-10-31T05:27:52;23.90;;;10.75;;
26042;SDS011;13818;52.156;5.382;2022-10-31T05:30:21;25.48;;;11.15;;
26042;SDS011;13818;52.156;5.382;2022-10-31T05:32:50;29.02;;;11.52;;
26042;SDS011;13818;52.156;5.382;2022-10-31T05:35:17;25.83;;;10.07;;
26042;SDS011;13818;52.156;5.382;2022-10-31T05:40:13;23.08;;;10.95;;
26042;SDS011;13818;52.156;5.382;2022-10-31T05:42:41;24.77;;;11.10;;
26042;SDS011;13818;52.156;5.382;2022-10-31T05:45:08;29.33;;;11.90;;
26042;SDS011;13818;52.156;5.382;2022-10-31T05:47:35;33.15;;;11.52;;
26042;SDS011;13818;52.156;5.382;2022-10-31T05:50:04;28.13;;;11.70;;
26042;SDS011;13818;52.156;5.382;2022-10-31T05:52:31;31.67;;;12.32;;
26042;SDS011;13818;52.156;5.382;2022-10-31T05:54:58;30.40;;;11.57;;
26042;SDS011;13818;52.156;5.382;2022-10-31T05:57:24;33.33;;;13.65;;
26042;SDS011;13818;52.156;5.382;2022-10-31T05:59:51;29.05;;;11.80;;
26042;SDS011;13818;52.156;5.382;2022-10-31T06:02:17;34.63;;;11.95;;
26042;SDS011;13818;52.156;5.382;2022-10-31T06:04:44;32.42;;;12.32;;
26042;SDS011;13818;52.156;5.382;2022-10-31T06:07:12;32.95;;;12.32;;
26042;SDS011;13818;52.156;5.382;2022-10-31T06:09:38;30.23;;;12.38;;
26042;SDS011;13818;52.156;5.382;2022-10-31T06:12:05;33.35;;;12.93;;
26042;SDS011;13818;52.156;5.382;2022-10-31T06:14:31;31.38;;;11.75;;
26042;SDS011;13818;52.156;5.382;2022-10-31T06:16:58;30.33;;;12.18;;
26042;SDS011;13818;52.156;5.382;2022-10-31T06:19:24;32.70;;;13.18;;
26042;SDS011;13818;52.156;5.382;2022-10-31T06:21:51;31.58;;;13.10;;
26042;SDS011;13818;52.156;5.382;2022-10-31T06:24:18;31.15;;;12.52;;
26042;SDS011;13818;52.156;5.382;2022-10-31T06:26:45;27.33;;;11.30;;
26042;SDS011;13818;52.156;5.382;2022-10-31T06:29:11;30.08;;;12.70;;
26042;SDS011;13818;52.156;5.382;2022-10-31T06:31:38;39.03;;;12.25;;
26042;SDS011;13818;52.156;5.382;2022-10-31T06:34:04;30.20;;;12.65;;
26042;SDS011;13818;52.156;5.382;2022-10-31T06:36:30;33.15;;;12.70;;
26042;SDS011;13818;52.156;5.382;2022-10-31T06:38:57;32.13;;;13.00;;
26042;SDS011;13818;52.156;5.382;2022-10-31T06:41:25;31.42;;;12.73;;
26042;SDS011;13818;52.156;5.382;2022-10-31T06:43:51;30.98;;;12.57;;
26042;SDS011;13818;52.156;5.382;2022-10-31T06:46:18;29.63;;;12.48;;
26042;SDS011;13818;52.156;5.382;2022-10-31T06:48:44;33.80;;;12.68;;
26042;SDS011;13818;52.156;5.382;2022-10-31T06:51:10;28.20;;;11.95;;
26042;SDS011;13818;52.156;5.382;2022-10-31T06:53:37;29.70;;;13.35;;
26042;SDS011;13818;52.156;5.382;2022-10-31T06:56:03;33.55;;;12.80;;
26042;SDS011;13818;52.156;5.382;2022-10-31T06:58:31;30.92;;;12.50;;
26042;SDS011;13818;52.156;5.382;2022-10-31T07:00:58;33.20;;;12.95;;
26042;SDS011;13818;52.156;5.382;2022-10-31T07:03:25;26.55;;;12.45;;
26042;SDS011;13818;52.156;5.382;2022-10-31T07:05:54;28.48;;;12.25;;
26042;SDS011;13818;52.156;5.382;2022-10-31T07:08:21;37.17;;;14.07;;
26042;SDS011;13818;52.156;5.382;2022-10-31T07:10:50;33.00;;;11.90;;
26042;SDS011;13818;52.156;5.382;2022-10-31T07:13:17;32.25;;;14.32;;
26042;SDS011;13818;52.156;5.382;2022-10-31T07:15:48;24.70;;;11.82;;
26042;SDS011;13818;52.156;5.382;2022-10-31T07:18:14;28.50;;;12.13;;
26042;SDS011;13818;52.156;5.382;2022-10-31T07:20:40;31.58;;;13.02;;
26042;SDS011;13818;52.156;5.382;2022-10-31T07:23:07;27.42;;;12.23;;
26042;SDS011;13818;52.156;5.382;2022-10-31T07:25:34;33.78;;;12.93;;
26042;SDS011;13818;52.156;5.382;2022-10-31T07:28:00;27.08;;;12.13;;
26042;SDS011;13818;52.156;5.382;2022-10-31T07:30:27;29.85;;;12.48;;
26042;SDS011;13818;52.156;5.382;2022-10-31T07:32:55;24.30;;;11.38;;
26042;SDS011;13818;52.156;5.382;2022-10-31T07:35:22;23.55;;;10.80;;
26042;SDS011;13818;52.156;5.382;2022-10-31T07:37:50;24.08;;;10.95;;
26042;SDS011;13818;52.156;5.382;2022-10-31T07:40:17;22.92;;;10.38;;
26042;SDS011;13818;52.156;5.382;2022-10-31T07:42:45;23.98;;;11.40;;
26042;SDS011;13818;52.156;5.382;2022-10-31T07:45:13;23.85;;;10.88;;
26042;SDS011;13818;52.156;5.382;2022-10-31T07:47:41;20.43;;;10.67;;
26042;SDS011;13818;52.156;5.382;2022-10-31T07:50:10;21.00;;;11.32;;
26042;SDS011;13818;52.156;5.382;2022-10-31T07:52:37;20.83;;;10.50;;
26042;SDS011;13818;52.156;5.382;2022-10-31T07:55:04;22.95;;;11.52;;
26042;SDS011;13818;52.156;5.382;2022-10-31T07:57:32;18.50;;;10.45;;
26042;SDS011;13818;52.156;5.382;2022-10-31T07:59:59;25.75;;;11.02;;
26042;SDS011;13818;52.156;5.382;2022-10-31T08:02:25;19.23;;;10.20;;
26042;SDS011;13818;52.156;5.382;2022-10-31T08:04:52;19.30;;;9.38;;
26042;SDS011;13818;52.156;5.382;2022-10-31T08:07:20;21.85;;;10.50;;
26042;SDS011;13818;52.156;5.382;2022-10-31T08:09:46;17.92;;;10.10;;
26042;SDS011;13818;52.156;5.382;2022-10-31T08:12:13;23.88;;;11.52;;
26042;SDS011;13818;52.156;5.382;2022-10-31T08:14:39;25.95;;;11.13;;
26042;SDS011;13818;52.156;5.382;2022-10-31T08:17:06;18.67;;;10.23;;
26042;SDS011;13818;52.156;5.382;2022-10-31T08:19:32;22.48;;;11.02;;
26042;SDS011;13818;52.156;5.382;2022-10-31T08:21:59;18.25;;;9.43;;
26042;SDS011;13818;52.156;5.382;2022-10-31T08:24:26;19.20;;;9.82;;
26042;SDS011;13818;52.156;5.382;2022-10-31T08:26:53;22.23;;;10.40;;
26042;SDS011;13818;52.156;5.382;2022-10-31T08:29:19;18.63;;;9.70;;
26042;SDS011;13818;52.156;5.382;2022-10-31T08:31:46;20.58;;;9.88;;
26042;SDS011;13818;52.156;5.382;2022-10-31T08:34:12;19.20;;;9.27;;
26042;SDS011;13818;52.156;5.382;2022-10-31T08:36:39;18.40;;;9.68;;
26042;SDS011;13818;52.156;5.382;2022-10-31T08:39:05;17.38;;;9.00;;
26042;SDS011;13818;52.156;5.382;2022-10-31T08:41:33;24.10;;;8.90;;
26042;SDS011;13818;52.156;5.382;2022-10-31T08:44:00;21.45;;;9.30;;
26042;SDS011;13818;52.156;5.382;2022-10-31T08:46:26;21.50;;;9.23;;
26042;SDS011;13818;52.156;5.382;2022-10-31T08:48:53;22.17;;;10.73;;
26042;SDS011;13818;52.156;5.382;2022-10-31T08:51:19;23.48;;;10.50;;
26042;SDS011;13818;52.156;5.382;2022-10-31T08:53:45;25.23;;;10.18;;
26042;SDS011;13818;52.156;5.382;2022-10-31T08:56:12;23.83;;;10.77;;
26042;SDS011;13818;52.156;5.382;2022-10-31T08:58:41;21.80;;;10.38;;
26042;SDS011;13818;52.156;5.382;2022-10-31T09:01:07;22.60;;;11.23;;
26042;SDS011;13818;52.156;5.382;2022-10-31T09:03:33;27.65;;;12.05;;
26042;SDS011;13818;52.156;5.382;2022-10-31T09:06:01;23.50;;;11.98;;
26042;SDS011;13818;52.156;5.382;2022-10-31T09:08:30;19.92;;;10.77;;
26042;SDS011;13818;52.156;5.382;2022-10-31T09:10:58;24.63;;;11.52;;
26042;SDS011;13818;52.156;5.382;2022-10-31T09:13:25;23.08;;;11.25;;
26042;SDS011;13818;52.156;5.382;2022-10-31T09:15:53;25.73;;;11.85;;
26042;SDS011;13818;52.156;5.382;2022-10-31T09:18:21;25.73;;;11.80;;
26042;SDS011;13818;52.156;5.382;2022-10-31T09:20:49;24.80;;;11.52;;
26042;SDS011;13818;52.156;5.382;2022-10-31T09:23:17;28.52;;;12.30;;
26042;SDS011;13818;52.156;5.382;2022-10-31T09:25:44;24.35;;;12.27;;
26042;SDS011;13818;52.156;5.382;2022-10-31T09:28:12;26.05;;;11.90;;
26042;SDS011;13818;52.156;5.382;2022-10-31T09:30:40;29.42;;;12.73;;
26042;SDS011;13818;52.156;5.382;2022-10-31T09:33:09;25.77;;;12.18;;
26042;SDS011;13818;52.156;5.382;2022-10-31T09:35:36;26.17;;;12.93;;
26042;SDS011;13818;52.156;5.382;2022-10-31T09:38:04;24.88;;;11.73;;
26042;SDS011;13818;52.156;5.382;2022-10-31T09:40:32;25.33;;;13.27;;
26042;SDS011;13818;52.156;5.382;2022-10-31T09:43:03;25.92;;;12.32;;
26042;SDS011;13818;52.156;5.382;2022-10-31T09:45:39;25.02;;;12.15;;
26042;SDS011;13818;52.156;5.382;2022-10-31T09:48:23;27.08;;;12.27;;
26042;SDS011;13818;52.156;5.382;2022-10-31T09:50:58;28.05;;;12.45;;
26042;SDS011;13818;52.156;5.382;2022-10-31T09:53:32;21.48;;;11.10;;
26042;SDS011;13818;52.156;5.382;2022-10-31T09:56:01;30.52;;;13.02;;
26042;SDS011;13818;52.156;5.382;2022-10-31T09:58:32;25.20;;;12.93;;
26042;SDS011;13818;52.156;5.382;2022-10-31T10:01:05;26.80;;;12.95;;
26042;SDS011;13818;52.156;5.382;2022-10-31T10:03:41;26.45;;;12.20;;
26042;SDS011;13818;52.156;5.382;2022-10-31T10:06:11;28.27;;;12.25;;
26042;SDS011;13818;52.156;5.382;2022-10-31T10:08:41;26.30;;;12.68;;
26042;SDS011;13818;52.156;5.382;2022-10-31T10:11:20;21.63;;;11.70;;
26042;SDS011;13818;52.156;5.382;2022-10-31T10:14:03;24.92;;;12.05;;
26042;SDS011;13818;52.156;5.382;2022-10-31T10:16:44;28.63;;;12.38;;
26042;SDS011;13818;52.156;5.382;2022-10-31T10:21:57;25.75;;;11.10;;
26042;SDS011;13818;52.156;5.382;2022-10-31T10:24:32;24.85;;;12.25;;
26042;SDS011;13818;52.156;5.382;2022-10-31T10:27:10;27.23;;;12.75;;
26042;SDS011;13818;52.156;5.382;2022-10-31T10:29:44;26.83;;;12.95;;
26042;SDS011;13818;52.156;5.382;2022-10-31T10:32:17;28.33;;;12.93;;
26042;SDS011;13818;52.156;5.382;2022-10-31T10:34:51;28.60;;;13.88;;
26042;SDS011;13818;52.156;5.382;2022-10-31T10:37:23;32.92;;;14.43;;
26042;SDS011;13818;52.156;5.382;2022-10-31T10:39:55;30.05;;;14.25;;
26042;SDS011;13818;52.156;5.382;2022-10-31T10:42:26;31.17;;;14.70;;
26042;SDS011;13818;52.156;5.382;2022-10-31T10:45:13;29.95;;;13.52;;
26042;SDS011;13818;52.156;5.382;2022-10-31T10:48:02;24.20;;;12.73;;
26042;SDS011;13818;52.156;5.382;2022-10-31T10:50:44;28.50;;;13.05;;
26042;SDS011;13818;52.156;5.382;2022-10-31T10:53:18;28.02;;;12.32;;
26042;SDS011;13818;52.156;5.382;2022-10-31T10:56:02;29.75;;;12.52;;
26042;SDS011;13818;52.156;5.382;2022-10-31T10:58:36;23.42;;;11.15;;
26042;SDS011;13818;52.156;5.382;2022-10-31T11:01:08;26.10;;;12.57;;
26042;SDS011;13818;52.156;5.382;2022-10-31T11:03:37;23.30;;;11.20;;
26042;SDS011;13818;52.156;5.382;2022-10-31T11:06:15;25.73;;;13.05;;
26042;SDS011;13818;52.156;5.382;2022-10-31T11:08:45;25.55;;;11.27;;
26042;SDS011;13818;52.156;5.382;2022-10-31T11:11:14;22.15;;;10.90;;
26042;SDS011;13818;52.156;5.382;2022-10-31T11:13:51;22.58;;;9.75;;
26042;SDS011;13818;52.156;5.382;2022-10-31T11:16:27;24.85;;;9.85;;
26042;SDS011;13818;52.156;5.382;2022-10-31T11:19:05;22.40;;;10.23;;
26042;SDS011;13818;52.156;5.382;2022-10-31T11:21:35;22.88;;;9.07;;
26042;SDS011;13818;52.156;5.382;2022-10-31T11:24:02;25.45;;;9.90;;
26042;SDS011;13818;52.156;5.382;2022-10-31T11:26:28;18.88;;;8.70;;
26042;SDS011;13818;52.156;5.382;2022-10-31T11:28:55;20.98;;;9.65;;
26042;SDS011;13818;52.156;5.382;2022-10-31T11:31:23;18.55;;;8.40;;
26042;SDS011;13818;52.156;5.382;2022-10-31T11:33:54;17.63;;;7.57;;
26042;SDS011;13818;52.156;5.382;2022-10-31T11:36:25;21.88;;;9.82;;
26042;SDS011;13818;52.156;5.382;2022-10-31T11:38:54;23.75;;;9.73;;
26042;SDS011;13818;52.156;5.382;2022-10-31T11:41:24;18.63;;;8.95;;
26042;SDS011;13818;52.156;5.382;2022-10-31T11:43:54;23.65;;;9.80;;
26042;SDS011;13818;52.156;5.382;2022-10-31T11:46:24;29.00;;;10.65;;
26042;SDS011;13818;52.156;5.382;2022-10-31T11:48:56;27.05;;;9.55;;
26042;SDS011;13818;52.156;5.382;2022-10-31T11:51:24;26.73;;;10.02;;
26042;SDS011;13818;52.156;5.382;2022-10-31T11:53:56;28.85;;;10.07;;
26042;SDS011;13818;52.156;5.382;2022-10-31T11:56:24;27.13;;;11.20;;
26042;SDS011;13818;52.156;5.382;2022-10-31T11:59:01;31.42;;;11.98;;
26042;SDS011;13818;52.156;5.382;2022-10-31T12:01:29;30.57;;;10.80;;
26042;SDS011;13818;52.156;5.382;2022-10-31T12:03:59;29.00;;;11.25;;
26042;SDS011;13818;52.156;5.382;2022-10-31T12:06:33;27.15;;;11.65;;
26042;SDS011;13818;52.156;5.382;2022-10-31T12:09:04;28.15;;;11.77;;
26042;SDS011;13818;52.156;5.382;2022-10-31T12:11:43;32.17;;;11.90;;
26042;SDS011;13818;52.156;5.382;2022-10-31T12:14:33;34.60;;;13.30;;
26042;SDS011;13818;52.156;5.382;2022-10-31T12:17:10;35.20;;;12.73;;
26042;SDS011;13818;52.156;5.382;2022-10-31T12:19:42;29.77;;;11.70;;
26042;SDS011;13818;52.156;5.382;2022-10-31T12:22:18;31.33;;;11.85;;
26042;SDS011;13818;52.156;5.382;2022-10-31T12:24:58;35.30;;;12.38;;
26042;SDS011;13818;52.156;5.382;2022-10-31T12:30:36;36.25;;;12.60;;
26042;SDS011;13818;52.156;5.382;2022-10-31T12:33:16;40.70;;;14.32;;
26042;SDS011;13818;52.156;5.382;2022-10-31T12:35:55;29.05;;;11.65;;
26042;SDS011;13818;52.156;5.382;2022-10-31T12:38:44;35.67;;;13.32;;
26042;SDS011;13818;52.156;5.382;2022-10-31T12:41:39;29.75;;;11.80;;
26042;SDS011;13818;52.156;5.382;2022-10-31T12:44:25;32.45;;;12.02;;
26042;SDS011;13818;52.156;5.382;2022-10-31T12:47:07;35.03;;;12.90;;
26042;SDS011;13818;52.156;5.382;2022-10-31T12:49:51;27.48;;;11.45;;
26042;SDS011;13818;52.156;5.382;2022-10-31T12:52:32;29.65;;;11.82;;
26042;SDS011;13818;52.156;5.382;2022-10-31T12:55:14;32.45;;;11.60;;
26042;SDS011;13818;52.156;5.382;2022-10-31T12:57:54;30.05;;;12.18;;
26042;SDS011;13818;52.156;5.382;2022-10-31T13:00:24;29.90;;;11.35;;
26042;SDS011;13818;52.156;5.382;2022-10-31T13:02:54;31.67;;;12.00;;
26042;SDS011;13818;52.156;5.382;2022-10-31T13:05:26;31.90;;;11.77;;
26042;SDS011;13818;52.156;5.382;2022-10-31T13:07:57;32.30;;;11.50;;
26042;SDS011;13818;52.156;5.382;2022-10-31T13:10:29;33.10;;;12.23;;
26042;SDS011;13818;52.156;5.382;2022-10-31T13:13:00;33.20;;;13.10;;
26042;SDS011;13818;52.156;5.382;2022-10-31T13:15:32;34.63;;;11.68;;
26042;SDS011;13818;52.156;5.382;2022-10-31T13:20:53;40.92;;;13.85;;
26042;SDS011;13818;52.156;5.382;2022-10-31T13:23:24;32.38;;;13.55;;
26042;SDS011;13818;52.156;5.382;2022-10-31T13:25:53;31.88;;;11.95;;
26042;SDS011;13818;52.156;5.382;2022-10-31T13:28:28;30.38;;;11.68;;
26042;SDS011;13818;52.156;5.382;2022-10-31T13:31:02;35.67;;;13.55;;
26042;SDS011;13818;52.156;5.382;2022-10-31T13:33:30;32.95;;;13.50;;
26042;SDS011;13818;52.156;5.382;2022-10-31T13:36:05;32.22;;;12.95;;
26042;SDS011;13818;52.156;5.382;2022-10-31T13:38:41;32.22;;;13.07;;
26042;SDS011;13818;52.156;5.382;2022-10-31T13:41:18;38.83;;;13.82;;
26042;SDS011;13818;52.156;5.382;2022-10-31T13:44:03;33.60;;;12.98;;
26042;SDS011;13818;52.156;5.382;2022-10-31T13:46:37;32.75;;;12.90;;
26042;SDS011;13818;52.156;5.382;2022-10-31T13:49:21;44.22;;;15.63;;
26042;SDS011;13818;52.156;5.382;2022-10-31T13:51:50;34.55;;;13.32;;
26042;SDS011;13818;52.156;5.382;2022-10-31T13:54:21;37.35;;;13.43;;
26042;SDS011;13818;52.156;5.382;2022-10-31T13:56:50;40.75;;;15.27;;
26042;SDS011;13818;52.156;5.382;2022-10-31T13:59:20;37.78;;;12.80;;
26042;SDS011;13818;52.156;5.382;2022-10-31T14:01:50;38.92;;;13.15;;
26042;SDS011;13818;52.156;5.382;2022-10-31T14:04:19;35.67;;;13.43;;
26042;SDS011;13818;52.156;5.382;2022-10-31T14:06:51;34.35;;;14.02;;
26042;SDS011;13818;52.156;5.382;2022-10-31T14:09:23;35.95;;;13.38;;
26042;SDS011;13818;52.156;5.382;2022-10-31T14:11:54;31.15;;;13.68;;
26042;SDS011;13818;52.156;5.382;2022-10-31T14:14:23;35.58;;;13.82;;
26042;SDS011;13818;52.156;5.382;2022-10-31T14:16:57;38.75;;;14.57;;
26042;SDS011;13818;52.156;5.382;2022-10-31T14:19:24;41.17;;;14.40;;
26042;SDS011;13818;52.156;5.382;2022-10-31T14:21:51;35.40;;;13.43;;
26042;SDS011;13818;52.156;5.382;2022-10-31T14:24:34;35.97;;;14.43;;
26042;SDS011;13818;52.156;5.382;2022-10-31T14:27:03;35.75;;;14.70;;
26042;SDS011;13818;52.156;5.382;2022-10-31T14:29:47;36.95;;;14.75;;
26042;SDS011;13818;52.156;5.382;2022-10-31T14:32:23;35.00;;;13.75;;
26042;SDS011;13818;52.156;5.382;2022-10-31T14:34:53;36.58;;;14.02;;
26042;SDS011;13818;52.156;5.382;2022-10-31T14:40:04;37.33;;;13.77;;
26042;SDS011;13818;52.156;5.382;2022-10-31T14:42:47;40.10;;;14.88;;
26042;SDS011;13818;52.156;5.382;2022-10-31T14:45:27;46.83;;;14.68;;
26042;SDS011;13818;52.156;5.382;2022-10-31T14:48:10;41.80;;;15.48;;
26042;SDS011;13818;52.156;5.382;2022-10-31T14:50:49;40.28;;;15.40;;
26042;SDS011;13818;52.156;5.382;2022-10-31T14:53:19;44.75;;;14.68;;
26042;SDS011;13818;52.156;5.382;2022-10-31T14:55:49;42.55;;;14.23;;
26042;SDS011;13818;52.156;5.382;2022-10-31T14:58:19;42.58;;;14.18;;
26042;SDS011;13818;52.156;5.382;2022-10-31T15:00:49;40.60;;;15.48;;
26042;SDS011;13818;52.156;5.382;2022-10-31T15:03:22;39.83;;;13.57;;